sensor_id;sensor_type;location;lat;lon;timestamp;P1;durP1;ratioP1;P2;durP2;ratioP2
2686;SDS011;1353;51.386;7.028;2022-08-21T00:01:34;9.00;;;6.10;;
2686;SDS011;1353;51.386;7.028;2022-08-21T00:04:03;8.23;;;6.37;;
2686;SDS011;1353;51.386;7.028;2022-08-21T00:06:31;9.13;;;6.73;;
2686;SDS011;1353;51.386;7.028;2022-08-21T00:08:58;6.90;;;6.30;;
2686;SDS011;1353;51.386;7.028;2022-08-21T00:11:26;9.13;;;6.60;;
2686;SDS011;1353;51.386;7.028;2022-08-21T00:13:53;7.73;;;6.77;;
2686;SDS011;1353;51.386;7.028;2022-08-21T00:16:19;10.17;;;6.57;;
2686;SDS011;1353;51.386;7.028;2022-08-21T00:18:47;10.37;;;7.00;;
2686;SDS011;1353;51.386;7.028;2022-08-21T00:21:14;13.50;;;7.90;;
2686;SDS011;1353;51.386;7.028;2022-08-21T00:23:42;13.10;;;7.73;;
2686;SDS011;1353;51.386;7.028;2022-08-21T00:26:09;7.47;;;6.70;;
2686;SDS011;1353;51.386;7.028;2022-08-21T00:28:36;11.40;;;9.20;;
2686;SDS011;1353;51.386;7.028;2022-08-21T00:31:03;14.20;;;9.70;;
2686;SDS011;1353;51.386;7.028;2022-08-21T00:33:30;8.50;;;7.70;;
2686;SDS011;1353;51.386;7.028;2022-08-21T00:35:59;10.03;;;9.00;;
2686;SDS011;1353;51.386;7.028;2022-08-21T00:38:26;10.63;;;9.47;;
2686;SDS011;1353;51.386;7.028;2022-08-21T00:40:54;10.80;;;9.50;;
2686;SDS011;1353;51.386;7.028;2022-08-21T00:43:23;10.83;;;9.73;;
2686;SDS011;1353;51.386;7.028;2022-08-21T00:45:54;11.80;;;9.90;;
2686;SDS011;1353;51.386;7.028;2022-08-21T00:48:22;11.80;;;10.50;;
2686;SDS011;1353;51.386;7.028;2022-08-21T00:50:52;13.37;;;10.30;;
2686;SDS011;1353;51.386;7.028;2022-08-21T00:53:23;10.40;;;9.40;;
2686;SDS011;1353;51.386;7.028;2022-08-21T00:55:51;13.20;;;9.23;;
2686;SDS011;1353;51.386;7.028;2022-08-21T00:58:18;11.10;;;9.23;;
2686;SDS011;1353;51.386;7.028;2022-08-21T01:00:47;15.00;;;9.30;;
2686;SDS011;1353;51.386;7.028;2022-08-21T01:03:16;16.40;;;10.17;;
2686;SDS011;1353;51.386;7.028;2022-08-21T01:05:43;14.00;;;10.03;;
2686;SDS011;1353;51.386;7.028;2022-08-21T01:08:11;12.70;;;9.80;;
2686;SDS011;1353;51.386;7.028;2022-08-21T01:10:41;8.93;;;8.13;;
2686;SDS011;1353;51.386;7.028;2022-08-21T01:13:08;9.77;;;8.57;;
2686;SDS011;1353;51.386;7.028;2022-08-21T01:15:45;10.10;;;8.90;;
2686;SDS011;1353;51.386;7.028;2022-08-21T01:18:15;13.10;;;9.37;;
2686;SDS011;1353;51.386;7.028;2022-08-21T01:20:44;13.73;;;9.30;;
2686;SDS011;1353;51.386;7.028;2022-08-21T01:23:17;12.33;;;8.50;;
2686;SDS011;1353;51.386;7.028;2022-08-21T01:25:44;10.00;;;8.20;;
2686;SDS011;1353;51.386;7.028;2022-08-21T01:28:12;8.23;;;7.33;;
2686;SDS011;1353;51.386;7.028;2022-08-21T01:30:40;12.97;;;8.60;;
2686;SDS011;1353;51.386;7.028;2022-08-21T01:33:09;12.80;;;9.70;;
2686;SDS011;1353;51.386;7.028;2022-08-21T01:35:36;15.00;;;9.67;;
2686;SDS011;1353;51.386;7.028;2022-08-21T01:38:04;16.87;;;9.90;;
2686;SDS011;1353;51.386;7.028;2022-08-21T01:40:31;13.10;;;9.30;;
2686;SDS011;1353;51.386;7.028;2022-08-21T01:42:58;13.30;;;9.83;;
2686;SDS011;1353;51.386;7.028;2022-08-21T01:45:25;13.27;;;10.10;;
2686;SDS011;1353;51.386;7.028;2022-08-21T01:47:52;11.97;;;9.13;;
2686;SDS011;1353;51.386;7.028;2022-08-21T01:50:19;13.20;;;11.07;;
2686;SDS011;1353;51.386;7.028;2022-08-21T01:52:46;10.57;;;7.70;;
2686;SDS011;1353;51.386;7.028;2022-08-21T01:55:16;10.80;;;8.40;;
2686;SDS011;1353;51.386;7.028;2022-08-21T01:57:43;9.60;;;7.83;;
2686;SDS011;1353;51.386;7.028;2022-08-21T02:00:12;12.50;;;7.90;;
2686;SDS011;1353;51.386;7.028;2022-08-21T02:02:41;9.50;;;7.93;;
2686;SDS011;1353;51.386;7.028;2022-08-21T02:05:09;10.23;;;8.10;;
2686;SDS011;1353;51.386;7.028;2022-08-21T02:07:37;10.60;;;8.60;;
2686;SDS011;1353;51.386;7.028;2022-08-21T02:10:05;10.83;;;7.87;;
2686;SDS011;1353;51.386;7.028;2022-08-21T02:12:35;8.97;;;8.17;;
2686;SDS011;1353;51.386;7.028;2022-08-21T02:15:02;15.03;;;9.50;;
2686;SDS011;1353;51.386;7.028;2022-08-21T02:17:36;13.90;;;8.90;;
2686;SDS011;1353;51.386;7.028;2022-08-21T02:20:04;17.70;;;9.10;;
2686;SDS011;1353;51.386;7.028;2022-08-21T02:22:31;12.80;;;8.70;;
2686;SDS011;1353;51.386;7.028;2022-08-21T02:24:58;10.00;;;9.00;;
2686;SDS011;1353;51.386;7.028;2022-08-21T02:27:25;18.00;;;10.23;;
2686;SDS011;1353;51.386;7.028;2022-08-21T02:29:53;11.40;;;9.70;;
2686;SDS011;1353;51.386;7.028;2022-08-21T02:32:21;10.77;;;9.27;;
2686;SDS011;1353;51.386;7.028;2022-08-21T02:34:48;12.90;;;9.90;;
2686;SDS011;1353;51.386;7.028;2022-08-21T02:37:14;13.80;;;10.80;;
2686;SDS011;1353;51.386;7.028;2022-08-21T02:39:41;13.17;;;10.17;;
2686;SDS011;1353;51.386;7.028;2022-08-21T02:42:08;10.20;;;9.20;;
2686;SDS011;1353;51.386;7.028;2022-08-21T02:44:35;12.30;;;9.07;;
2686;SDS011;1353;51.386;7.028;2022-08-21T02:47:03;11.73;;;10.13;;
2686;SDS011;1353;51.386;7.028;2022-08-21T02:49:30;19.63;;;10.70;;
2686;SDS011;1353;51.386;7.028;2022-08-21T02:51:57;14.47;;;10.90;;
2686;SDS011;1353;51.386;7.028;2022-08-21T02:54:24;13.63;;;11.43;;
2686;SDS011;1353;51.386;7.028;2022-08-21T02:56:51;16.93;;;10.77;;
2686;SDS011;1353;51.386;7.028;2022-08-21T02:59:17;18.57;;;12.20;;
2686;SDS011;1353;51.386;7.028;2022-08-21T03:01:44;11.43;;;10.30;;
2686;SDS011;1353;51.386;7.028;2022-08-21T03:04:12;12.03;;;10.70;;
2686;SDS011;1353;51.386;7.028;2022-08-21T03:06:39;12.30;;;10.20;;
2686;SDS011;1353;51.386;7.028;2022-08-21T03:09:06;12.50;;;11.20;;
2686;SDS011;1353;51.386;7.028;2022-08-21T03:11:32;15.40;;;10.00;;
2686;SDS011;1353;51.386;7.028;2022-08-21T03:14:00;12.20;;;8.27;;
2686;SDS011;1353;51.386;7.028;2022-08-21T03:16:27;12.37;;;9.00;;
2686;SDS011;1353;51.386;7.028;2022-08-21T03:18:54;10.20;;;9.10;;
2686;SDS011;1353;51.386;7.028;2022-08-21T03:21:22;12.60;;;9.47;;
2686;SDS011;1353;51.386;7.028;2022-08-21T03:23:49;12.80;;;9.50;;
2686;SDS011;1353;51.386;7.028;2022-08-21T03:26:16;11.00;;;9.80;;
2686;SDS011;1353;51.386;7.028;2022-08-21T03:28:42;14.90;;;10.80;;
2686;SDS011;1353;51.386;7.028;2022-08-21T03:31:09;16.17;;;11.13;;
2686;SDS011;1353;51.386;7.028;2022-08-21T03:33:36;10.93;;;9.80;;
2686;SDS011;1353;51.386;7.028;2022-08-21T03:36:04;10.23;;;8.47;;
2686;SDS011;1353;51.386;7.028;2022-08-21T03:38:34;11.53;;;9.00;;
2686;SDS011;1353;51.386;7.028;2022-08-21T03:41:03;11.23;;;9.70;;
2686;SDS011;1353;51.386;7.028;2022-08-21T03:43:30;13.93;;;9.60;;
2686;SDS011;1353;51.386;7.028;2022-08-21T03:45:58;13.00;;;10.20;;
2686;SDS011;1353;51.386;7.028;2022-08-21T03:48:26;12.83;;;11.63;;
2686;SDS011;1353;51.386;7.028;2022-08-21T03:50:52;17.97;;;11.67;;
2686;SDS011;1353;51.386;7.028;2022-08-21T03:53:19;11.40;;;10.27;;
2686;SDS011;1353;51.386;7.028;2022-08-21T03:55:48;13.10;;;10.87;;
2686;SDS011;1353;51.386;7.028;2022-08-21T03:58:19;16.93;;;12.20;;
2686;SDS011;1353;51.386;7.028;2022-08-21T04:00:49;14.80;;;11.27;;
2686;SDS011;1353;51.386;7.028;2022-08-21T04:03:18;13.17;;;11.83;;
2686;SDS011;1353;51.386;7.028;2022-08-21T04:05:45;13.60;;;11.63;;
2686;SDS011;1353;51.386;7.028;2022-08-21T04:08:13;17.30;;;11.67;;
2686;SDS011;1353;51.386;7.028;2022-08-21T04:10:42;15.23;;;11.70;;
2686;SDS011;1353;51.386;7.028;2022-08-21T04:13:12;13.70;;;11.83;;
2686;SDS011;1353;51.386;7.028;2022-08-21T04:15:39;15.40;;;11.87;;
2686;SDS011;1353;51.386;7.028;2022-08-21T04:18:06;12.23;;;10.43;;
2686;SDS011;1353;51.386;7.028;2022-08-21T04:20:33;14.47;;;11.43;;
2686;SDS011;1353;51.386;7.028;2022-08-21T04:23:01;16.57;;;11.37;;
2686;SDS011;1353;51.386;7.028;2022-08-21T04:25:28;12.73;;;11.43;;
2686;SDS011;1353;51.386;7.028;2022-08-21T04:27:55;14.07;;;12.67;;
2686;SDS011;1353;51.386;7.028;2022-08-21T04:30:23;12.50;;;11.10;;
2686;SDS011;1353;51.386;7.028;2022-08-21T04:32:51;12.07;;;10.97;;
2686;SDS011;1353;51.386;7.028;2022-08-21T04:35:19;15.17;;;13.50;;
2686;SDS011;1353;51.386;7.028;2022-08-21T04:37:47;13.13;;;11.10;;
2686;SDS011;1353;51.386;7.028;2022-08-21T04:40:15;16.30;;;11.90;;
2686;SDS011;1353;51.386;7.028;2022-08-21T04:42:44;16.53;;;14.07;;
2686;SDS011;1353;51.386;7.028;2022-08-21T04:45:16;14.80;;;11.90;;
2686;SDS011;1353;51.386;7.028;2022-08-21T04:47:47;13.97;;;11.57;;
2686;SDS011;1353;51.386;7.028;2022-08-21T04:50:15;15.93;;;14.23;;
2686;SDS011;1353;51.386;7.028;2022-08-21T04:52:42;21.60;;;15.40;;
2686;SDS011;1353;51.386;7.028;2022-08-21T04:55:09;20.43;;;15.40;;
2686;SDS011;1353;51.386;7.028;2022-08-21T04:57:37;15.43;;;13.83;;
2686;SDS011;1353;51.386;7.028;2022-08-21T05:00:06;22.90;;;19.00;;
2686;SDS011;1353;51.386;7.028;2022-08-21T05:02:35;25.40;;;20.57;;
2686;SDS011;1353;51.386;7.028;2022-08-21T05:05:05;28.40;;;19.80;;
2686;SDS011;1353;51.386;7.028;2022-08-21T05:07:32;34.87;;;24.57;;
2686;SDS011;1353;51.386;7.028;2022-08-21T05:10:00;29.77;;;24.07;;
2686;SDS011;1353;51.386;7.028;2022-08-21T05:12:27;30.47;;;24.80;;
2686;SDS011;1353;51.386;7.028;2022-08-21T05:14:54;32.20;;;21.53;;
2686;SDS011;1353;51.386;7.028;2022-08-21T05:17:21;32.53;;;25.27;;
2686;SDS011;1353;51.386;7.028;2022-08-21T05:19:48;37.23;;;26.20;;
2686;SDS011;1353;51.386;7.028;2022-08-21T05:22:20;46.50;;;33.13;;
2686;SDS011;1353;51.386;7.028;2022-08-21T05:24:47;57.10;;;38.27;;
2686;SDS011;1353;51.386;7.028;2022-08-21T05:27:13;59.63;;;44.20;;
2686;SDS011;1353;51.386;7.028;2022-08-21T05:29:40;72.63;;;45.30;;
2686;SDS011;1353;51.386;7.028;2022-08-21T05:32:08;52.13;;;41.10;;
2686;SDS011;1353;51.386;7.028;2022-08-21T05:34:35;44.30;;;34.80;;
2686;SDS011;1353;51.386;7.028;2022-08-21T05:37:02;26.47;;;23.33;;
2686;SDS011;1353;51.386;7.028;2022-08-21T05:39:31;18.93;;;14.73;;
2686;SDS011;1353;51.386;7.028;2022-08-21T05:41:58;18.67;;;14.27;;
2686;SDS011;1353;51.386;7.028;2022-08-21T05:44:25;14.03;;;12.47;;
2686;SDS011;1353;51.386;7.028;2022-08-21T05:46:51;13.60;;;11.63;;
2686;SDS011;1353;51.386;7.028;2022-08-21T05:49:18;17.20;;;11.43;;
2686;SDS011;1353;51.386;7.028;2022-08-21T05:51:45;14.80;;;10.30;;
2686;SDS011;1353;51.386;7.028;2022-08-21T05:54:12;14.70;;;10.40;;
2686;SDS011;1353;51.386;7.028;2022-08-21T05:56:40;14.83;;;10.80;;
2686;SDS011;1353;51.386;7.028;2022-08-21T05:59:09;16.30;;;11.43;;
2686;SDS011;1353;51.386;7.028;2022-08-21T06:01:37;11.10;;;9.90;;
2686;SDS011;1353;51.386;7.028;2022-08-21T06:04:04;10.90;;;9.73;;
2686;SDS011;1353;51.386;7.028;2022-08-21T06:06:32;11.60;;;8.80;;
2686;SDS011;1353;51.386;7.028;2022-08-21T06:08:59;13.90;;;10.17;;
2686;SDS011;1353;51.386;7.028;2022-08-21T06:11:26;9.40;;;8.43;;
2686;SDS011;1353;51.386;7.028;2022-08-21T06:13:54;9.97;;;7.23;;
2686;SDS011;1353;51.386;7.028;2022-08-21T06:16:21;10.63;;;7.87;;
2686;SDS011;1353;51.386;7.028;2022-08-21T06:18:47;9.27;;;7.10;;
2686;SDS011;1353;51.386;7.028;2022-08-21T06:21:14;10.03;;;7.50;;
2686;SDS011;1353;51.386;7.028;2022-08-21T06:23:42;8.20;;;6.40;;
2686;SDS011;1353;51.386;7.028;2022-08-21T06:26:10;9.30;;;7.80;;
2686;SDS011;1353;51.386;7.028;2022-08-21T06:28:38;9.40;;;7.67;;
2686;SDS011;1353;51.386;7.028;2022-08-21T06:31:11;8.17;;;7.30;;
2686;SDS011;1353;51.386;7.028;2022-08-21T06:33:39;9.73;;;7.40;;
2686;SDS011;1353;51.386;7.028;2022-08-21T06:36:06;8.87;;;7.97;;
2686;SDS011;1353;51.386;7.028;2022-08-21T06:38:34;9.30;;;8.50;;
2686;SDS011;1353;51.386;7.028;2022-08-21T06:41:00;9.40;;;7.90;;
2686;SDS011;1353;51.386;7.028;2022-08-21T06:43:27;11.03;;;8.50;;
2686;SDS011;1353;51.386;7.028;2022-08-21T06:45:54;9.30;;;8.40;;
2686;SDS011;1353;51.386;7.028;2022-08-21T06:48:22;9.27;;;8.30;;
2686;SDS011;1353;51.386;7.028;2022-08-21T06:50:49;9.40;;;8.47;;
2686;SDS011;1353;51.386;7.028;2022-08-21T06:53:17;11.10;;;8.80;;
2686;SDS011;1353;51.386;7.028;2022-08-21T06:55:45;9.93;;;8.40;;
2686;SDS011;1353;51.386;7.028;2022-08-21T06:58:12;11.03;;;8.03;;
2686;SDS011;1353;51.386;7.028;2022-08-21T07:00:40;9.10;;;8.20;;
2686;SDS011;1353;51.386;7.028;2022-08-21T07:03:15;10.13;;;7.80;;
2686;SDS011;1353;51.386;7.028;2022-08-21T07:05:45;8.40;;;7.40;;
2686;SDS011;1353;51.386;7.028;2022-08-21T07:08:12;9.17;;;7.60;;
2686;SDS011;1353;51.386;7.028;2022-08-21T07:10:39;7.40;;;6.70;;
2686;SDS011;1353;51.386;7.028;2022-08-21T07:13:06;6.43;;;5.80;;
2686;SDS011;1353;51.386;7.028;2022-08-21T07:15:33;9.20;;;6.33;;
2686;SDS011;1353;51.386;7.028;2022-08-21T07:18:00;7.03;;;5.50;;
2686;SDS011;1353;51.386;7.028;2022-08-21T07:20:27;11.00;;;6.53;;
2686;SDS011;1353;51.386;7.028;2022-08-21T07:22:56;12.30;;;6.27;;
2686;SDS011;1353;51.386;7.028;2022-08-21T07:25:25;10.77;;;5.67;;
2686;SDS011;1353;51.386;7.028;2022-08-21T07:27:52;7.10;;;4.97;;
2686;SDS011;1353;51.386;7.028;2022-08-21T07:30:19;7.27;;;5.17;;
2686;SDS011;1353;51.386;7.028;2022-08-21T07:32:46;8.50;;;5.73;;
2686;SDS011;1353;51.386;7.028;2022-08-21T07:35:14;5.40;;;4.80;;
2686;SDS011;1353;51.386;7.028;2022-08-21T07:37:41;6.87;;;4.70;;
2686;SDS011;1353;51.386;7.028;2022-08-21T07:40:09;7.43;;;5.07;;
2686;SDS011;1353;51.386;7.028;2022-08-21T07:42:39;10.43;;;4.90;;
2686;SDS011;1353;51.386;7.028;2022-08-21T07:45:07;5.53;;;4.77;;
2686;SDS011;1353;51.386;7.028;2022-08-21T07:47:34;4.60;;;4.20;;
2686;SDS011;1353;51.386;7.028;2022-08-21T07:50:01;5.70;;;4.60;;
2686;SDS011;1353;51.386;7.028;2022-08-21T07:52:29;7.70;;;4.90;;
2686;SDS011;1353;51.386;7.028;2022-08-21T07:54:56;5.07;;;4.57;;
2686;SDS011;1353;51.386;7.028;2022-08-21T07:57:24;7.77;;;5.20;;
2686;SDS011;1353;51.386;7.028;2022-08-21T07:59:51;5.20;;;4.70;;
2686;SDS011;1353;51.386;7.028;2022-08-21T08:02:21;6.30;;;4.80;;
2686;SDS011;1353;51.386;7.028;2022-08-21T08:04:49;5.67;;;4.50;;
2686;SDS011;1353;51.386;7.028;2022-08-21T08:09:49;6.33;;;4.63;;
2686;SDS011;1353;51.386;7.028;2022-08-21T08:12:16;6.47;;;4.43;;
2686;SDS011;1353;51.386;7.028;2022-08-21T08:14:44;5.27;;;4.23;;
2686;SDS011;1353;51.386;7.028;2022-08-21T08:17:11;5.77;;;4.40;;
2686;SDS011;1353;51.386;7.028;2022-08-21T08:19:39;6.67;;;5.03;;
2686;SDS011;1353;51.386;7.028;2022-08-21T08:22:12;5.53;;;3.73;;
2686;SDS011;1353;51.386;7.028;2022-08-21T08:24:39;6.67;;;4.00;;
2686;SDS011;1353;51.386;7.028;2022-08-21T08:27:06;5.73;;;3.50;;
2686;SDS011;1353;51.386;7.028;2022-08-21T08:29:33;5.40;;;4.17;;
2686;SDS011;1353;51.386;7.028;2022-08-21T08:32:01;4.10;;;3.70;;
2686;SDS011;1353;51.386;7.028;2022-08-21T08:34:28;5.43;;;3.67;;
2686;SDS011;1353;51.386;7.028;2022-08-21T08:36:55;5.87;;;3.03;;
2686;SDS011;1353;51.386;7.028;2022-08-21T08:39:23;4.50;;;3.00;;
2686;SDS011;1353;51.386;7.028;2022-08-21T08:41:51;3.33;;;2.83;;
2686;SDS011;1353;51.386;7.028;2022-08-21T08:44:25;6.43;;;2.50;;
2686;SDS011;1353;51.386;7.028;2022-08-21T08:46:52;4.90;;;2.70;;
2686;SDS011;1353;51.386;7.028;2022-08-21T08:49:22;5.23;;;2.83;;
2686;SDS011;1353;51.386;7.028;2022-08-21T08:51:53;4.60;;;2.67;;
2686;SDS011;1353;51.386;7.028;2022-08-21T08:54:26;4.17;;;2.33;;
2686;SDS011;1353;51.386;7.028;2022-08-21T08:56:57;2.53;;;2.10;;
2686;SDS011;1353;51.386;7.028;2022-08-21T08:59:27;2.10;;;1.90;;
2686;SDS011;1353;51.386;7.028;2022-08-21T09:02:02;3.60;;;2.00;;
2686;SDS011;1353;51.386;7.028;2022-08-21T09:04:31;3.77;;;2.20;;
2686;SDS011;1353;51.386;7.028;2022-08-21T09:07:01;4.00;;;2.37;;
2686;SDS011;1353;51.386;7.028;2022-08-21T09:09:43;4.63;;;2.03;;
2686;SDS011;1353;51.386;7.028;2022-08-21T09:12:25;2.70;;;2.20;;
2686;SDS011;1353;51.386;7.028;2022-08-21T09:15:03;3.43;;;1.60;;
2686;SDS011;1353;51.386;7.028;2022-08-21T09:17:46;2.57;;;2.37;;
2686;SDS011;1353;51.386;7.028;2022-08-21T09:20:29;2.80;;;1.67;;
2686;SDS011;1353;51.386;7.028;2022-08-21T09:23:06;2.70;;;1.80;;
2686;SDS011;1353;51.386;7.028;2022-08-21T09:25:45;2.23;;;1.63;;
2686;SDS011;1353;51.386;7.028;2022-08-21T09:28:24;2.50;;;1.73;;
2686;SDS011;1353;51.386;7.028;2022-08-21T09:30:51;5.67;;;2.10;;
2686;SDS011;1353;51.386;7.028;2022-08-21T09:33:23;4.13;;;1.67;;
2686;SDS011;1353;51.386;7.028;2022-08-21T09:35:52;3.43;;;1.47;;
2686;SDS011;1353;51.386;7.028;2022-08-21T09:38:27;2.37;;;1.70;;
2686;SDS011;1353;51.386;7.028;2022-08-21T09:40:57;1.73;;;1.40;;
2686;SDS011;1353;51.386;7.028;2022-08-21T09:43:26;2.03;;;1.20;;
2686;SDS011;1353;51.386;7.028;2022-08-21T09:46:07;3.50;;;1.83;;
2686;SDS011;1353;51.386;7.028;2022-08-21T09:48:40;2.77;;;1.80;;
2686;SDS011;1353;51.386;7.028;2022-08-21T09:51:11;2.30;;;1.30;;
2686;SDS011;1353;51.386;7.028;2022-08-21T09:53:41;2.20;;;1.73;;
2686;SDS011;1353;51.386;7.028;2022-08-21T09:56:18;2.53;;;1.50;;
2686;SDS011;1353;51.386;7.028;2022-08-21T09:59:12;2.30;;;1.47;;
2686;SDS011;1353;51.386;7.028;2022-08-21T10:01:42;4.60;;;1.50;;
2686;SDS011;1353;51.386;7.028;2022-08-21T10:04:10;1.60;;;1.10;;
2686;SDS011;1353;51.386;7.028;2022-08-21T10:06:38;2.80;;;1.57;;
2686;SDS011;1353;51.386;7.028;2022-08-21T10:09:06;3.27;;;1.63;;
2686;SDS011;1353;51.386;7.028;2022-08-21T10:11:34;4.37;;;1.67;;
2686;SDS011;1353;51.386;7.028;2022-08-21T10:14:05;2.50;;;1.50;;
2686;SDS011;1353;51.386;7.028;2022-08-21T10:16:42;3.97;;;1.50;;
2686;SDS011;1353;51.386;7.028;2022-08-21T10:19:20;2.57;;;1.30;;
2686;SDS011;1353;51.386;7.028;2022-08-21T10:22:02;5.43;;;1.30;;
2686;SDS011;1353;51.386;7.028;2022-08-21T10:24:40;2.60;;;1.43;;
2686;SDS011;1353;51.386;7.028;2022-08-21T10:27:20;2.10;;;1.40;;
2686;SDS011;1353;51.386;7.028;2022-08-21T10:29:54;5.13;;;1.50;;
2686;SDS011;1353;51.386;7.028;2022-08-21T10:32:40;2.20;;;1.57;;
2686;SDS011;1353;51.386;7.028;2022-08-21T10:35:14;2.10;;;1.40;;
2686;SDS011;1353;51.386;7.028;2022-08-21T10:37:52;2.93;;;2.03;;
2686;SDS011;1353;51.386;7.028;2022-08-21T10:40:34;4.23;;;1.57;;
2686;SDS011;1353;51.386;7.028;2022-08-21T10:43:09;3.67;;;1.47;;
2686;SDS011;1353;51.386;7.028;2022-08-21T10:45:52;2.07;;;1.40;;
2686;SDS011;1353;51.386;7.028;2022-08-21T10:48:28;1.73;;;1.57;;
2686;SDS011;1353;51.386;7.028;2022-08-21T10:51:04;3.10;;;1.40;;
2686;SDS011;1353;51.386;7.028;2022-08-21T10:53:41;3.20;;;1.83;;
2686;SDS011;1353;51.386;7.028;2022-08-21T10:56:22;1.60;;;1.43;;
2686;SDS011;1353;51.386;7.028;2022-08-21T10:58:56;1.80;;;1.27;;
2686;SDS011;1353;51.386;7.028;2022-08-21T11:01:32;1.57;;;1.40;;
2686;SDS011;1353;51.386;7.028;2022-08-21T11:04:09;2.03;;;1.50;;
2686;SDS011;1353;51.386;7.028;2022-08-21T11:06:40;2.67;;;1.57;;
2686;SDS011;1353;51.386;7.028;2022-08-21T11:09:13;3.70;;;1.70;;
2686;SDS011;1353;51.386;7.028;2022-08-21T11:11:44;2.10;;;1.20;;
2686;SDS011;1353;51.386;7.028;2022-08-21T11:14:17;1.80;;;1.03;;
2686;SDS011;1353;51.386;7.028;2022-08-21T11:16:51;2.17;;;1.00;;
2686;SDS011;1353;51.386;7.028;2022-08-21T11:19:26;2.37;;;1.57;;
2686;SDS011;1353;51.386;7.028;2022-08-21T11:21:57;2.63;;;1.20;;
2686;SDS011;1353;51.386;7.028;2022-08-21T11:24:30;3.10;;;1.53;;
2686;SDS011;1353;51.386;7.028;2022-08-21T11:27:03;3.30;;;1.50;;
2686;SDS011;1353;51.386;7.028;2022-08-21T11:29:36;1.73;;;1.20;;
2686;SDS011;1353;51.386;7.028;2022-08-21T11:32:18;2.27;;;1.23;;
2686;SDS011;1353;51.386;7.028;2022-08-21T11:34:58;1.97;;;1.30;;
2686;SDS011;1353;51.386;7.028;2022-08-21T11:37:35;2.20;;;1.27;;
2686;SDS011;1353;51.386;7.028;2022-08-21T11:40:19;4.07;;;1.30;;
2686;SDS011;1353;51.386;7.028;2022-08-21T11:42:59;1.23;;;1.03;;
2686;SDS011;1353;51.386;7.028;2022-08-21T11:45:36;3.33;;;1.20;;
2686;SDS011;1353;51.386;7.028;2022-08-21T11:48:09;1.83;;;0.90;;
2686;SDS011;1353;51.386;7.028;2022-08-21T11:50:42;3.63;;;1.60;;
2686;SDS011;1353;51.386;7.028;2022-08-21T11:53:12;3.47;;;1.30;;
2686;SDS011;1353;51.386;7.028;2022-08-21T11:55:45;2.17;;;1.30;;
2686;SDS011;1353;51.386;7.028;2022-08-21T11:58:17;2.50;;;1.00;;
2686;SDS011;1353;51.386;7.028;2022-08-21T12:00:49;2.77;;;1.50;;
2686;SDS011;1353;51.386;7.028;2022-08-21T12:03:22;1.77;;;0.90;;
2686;SDS011;1353;51.386;7.028;2022-08-21T12:05:52;2.80;;;1.37;;
2686;SDS011;1353;51.386;7.028;2022-08-21T12:08:29;4.73;;;1.47;;
2686;SDS011;1353;51.386;7.028;2022-08-21T12:11:04;2.70;;;1.43;;
2686;SDS011;1353;51.386;7.028;2022-08-21T12:13:36;0.80;;;0.70;;
2686;SDS011;1353;51.386;7.028;2022-08-21T12:16:08;1.97;;;1.00;;
2686;SDS011;1353;51.386;7.028;2022-08-21T12:18:37;1.00;;;0.80;;
2686;SDS011;1353;51.386;7.028;2022-08-21T12:21:15;3.43;;;1.37;;
2686;SDS011;1353;51.386;7.028;2022-08-21T12:23:46;3.13;;;1.03;;
2686;SDS011;1353;51.386;7.028;2022-08-21T12:26:20;2.13;;;1.10;;
2686;SDS011;1353;51.386;7.028;2022-08-21T12:29:02;1.57;;;1.13;;
2686;SDS011;1353;51.386;7.028;2022-08-21T12:31:33;1.70;;;1.50;;
2686;SDS011;1353;51.386;7.028;2022-08-21T12:34:01;3.40;;;1.37;;
2686;SDS011;1353;51.386;7.028;2022-08-21T12:36:39;2.80;;;1.07;;
2686;SDS011;1353;51.386;7.028;2022-08-21T12:39:11;2.20;;;1.23;;
2686;SDS011;1353;51.386;7.028;2022-08-21T12:41:43;1.60;;;1.07;;
2686;SDS011;1353;51.386;7.028;2022-08-21T12:44:14;1.57;;;1.10;;
2686;SDS011;1353;51.386;7.028;2022-08-21T12:46:43;2.20;;;1.27;;
2686;SDS011;1353;51.386;7.028;2022-08-21T12:49:14;4.73;;;1.37;;
2686;SDS011;1353;51.386;7.028;2022-08-21T12:51:52;5.27;;;1.20;;
2686;SDS011;1353;51.386;7.028;2022-08-21T12:54:23;1.77;;;1.20;;
2686;SDS011;1353;51.386;7.028;2022-08-21T12:56:57;2.23;;;1.20;;
2686;SDS011;1353;51.386;7.028;2022-08-21T12:59:26;2.00;;;1.10;;
2686;SDS011;1353;51.386;7.028;2022-08-21T13:01:53;1.83;;;0.80;;
2686;SDS011;1353;51.386;7.028;2022-08-21T13:04:22;1.80;;;1.03;;
2686;SDS011;1353;51.386;7.028;2022-08-21T13:06:53;2.23;;;1.03;;
2686;SDS011;1353;51.386;7.028;2022-08-21T13:09:25;2.33;;;0.83;;
2686;SDS011;1353;51.386;7.028;2022-08-21T13:11:53;2.00;;;1.00;;
2686;SDS011;1353;51.386;7.028;2022-08-21T13:14:24;3.90;;;1.13;;
2686;SDS011;1353;51.386;7.028;2022-08-21T13:16:55;2.27;;;1.13;;
2686;SDS011;1353;51.386;7.028;2022-08-21T13:19:23;2.50;;;1.20;;
2686;SDS011;1353;51.386;7.028;2022-08-21T13:21:51;1.93;;;0.83;;
2686;SDS011;1353;51.386;7.028;2022-08-21T13:24:20;1.87;;;1.13;;
2686;SDS011;1353;51.386;7.028;2022-08-21T13:26:48;1.73;;;1.10;;
2686;SDS011;1353;51.386;7.028;2022-08-21T13:29:17;1.73;;;0.83;;
2686;SDS011;1353;51.386;7.028;2022-08-21T13:31:48;1.57;;;0.90;;
2686;SDS011;1353;51.386;7.028;2022-08-21T13:34:17;2.07;;;1.03;;
2686;SDS011;1353;51.386;7.028;2022-08-21T13:36:45;2.10;;;0.83;;
2686;SDS011;1353;51.386;7.028;2022-08-21T13:39:14;1.20;;;1.00;;
2686;SDS011;1353;51.386;7.028;2022-08-21T13:41:45;1.53;;;1.10;;
2686;SDS011;1353;51.386;7.028;2022-08-21T13:44:15;2.80;;;1.27;;
2686;SDS011;1353;51.386;7.028;2022-08-21T13:46:43;1.30;;;1.20;;
2686;SDS011;1353;51.386;7.028;2022-08-21T13:49:14;2.10;;;1.00;;
2686;SDS011;1353;51.386;7.028;2022-08-21T13:51:42;2.70;;;1.10;;
2686;SDS011;1353;51.386;7.028;2022-08-21T13:54:14;2.37;;;1.30;;
2686;SDS011;1353;51.386;7.028;2022-08-21T13:56:46;2.80;;;1.50;;
2686;SDS011;1353;51.386;7.028;2022-08-21T13:59:22;1.60;;;1.13;;
2686;SDS011;1353;51.386;7.028;2022-08-21T14:01:51;1.50;;;1.40;;
2686;SDS011;1353;51.386;7.028;2022-08-21T14:04:26;2.03;;;1.00;;
2686;SDS011;1353;51.386;7.028;2022-08-21T14:06:58;2.00;;;1.10;;
2686;SDS011;1353;51.386;7.028;2022-08-21T14:09:28;1.87;;;1.77;;
2686;SDS011;1353;51.386;7.028;2022-08-21T14:11:57;6.97;;;1.10;;
2686;SDS011;1353;51.386;7.028;2022-08-21T14:14:28;2.47;;;1.23;;
2686;SDS011;1353;51.386;7.028;2022-08-21T14:16:58;1.60;;;1.10;;
2686;SDS011;1353;51.386;7.028;2022-08-21T14:19:34;2.53;;;1.30;;
2686;SDS011;1353;51.386;7.028;2022-08-21T14:24:59;3.07;;;1.07;;
2686;SDS011;1353;51.386;7.028;2022-08-21T14:27:29;3.67;;;1.43;;
2686;SDS011;1353;51.386;7.028;2022-08-21T14:29:58;2.00;;;1.00;;
2686;SDS011;1353;51.386;7.028;2022-08-21T14:32:27;3.07;;;1.17;;
2686;SDS011;1353;51.386;7.028;2022-08-21T14:34:57;1.37;;;0.97;;
2686;SDS011;1353;51.386;7.028;2022-08-21T14:37:24;2.20;;;1.30;;
2686;SDS011;1353;51.386;7.028;2022-08-21T14:39:51;1.87;;;1.30;;
2686;SDS011;1353;51.386;7.028;2022-08-21T14:42:18;2.17;;;1.10;;
2686;SDS011;1353;51.386;7.028;2022-08-21T14:44:45;1.53;;;1.00;;
2686;SDS011;1353;51.386;7.028;2022-08-21T14:47:13;1.63;;;1.20;;
2686;SDS011;1353;51.386;7.028;2022-08-21T14:49:39;1.03;;;0.90;;
2686;SDS011;1353;51.386;7.028;2022-08-21T14:52:07;1.47;;;1.30;;
2686;SDS011;1353;51.386;7.028;2022-08-21T14:54:34;1.90;;;1.00;;
2686;SDS011;1353;51.386;7.028;2022-08-21T14:57:02;5.27;;;1.40;;
2686;SDS011;1353;51.386;7.028;2022-08-21T14:59:31;3.40;;;1.80;;
2686;SDS011;1353;51.386;7.028;2022-08-21T15:01:58;2.43;;;1.10;;
2686;SDS011;1353;51.386;7.028;2022-08-21T15:04:25;2.00;;;1.13;;
2686;SDS011;1353;51.386;7.028;2022-08-21T15:06:52;1.90;;;1.00;;
2686;SDS011;1353;51.386;7.028;2022-08-21T15:09:20;1.70;;;0.83;;
2686;SDS011;1353;51.386;7.028;2022-08-21T15:11:47;3.00;;;1.17;;
2686;SDS011;1353;51.386;7.028;2022-08-21T15:14:22;1.37;;;1.20;;
2686;SDS011;1353;51.386;7.028;2022-08-21T15:16:51;2.90;;;1.00;;
2686;SDS011;1353;51.386;7.028;2022-08-21T15:19:18;3.67;;;1.20;;
2686;SDS011;1353;51.386;7.028;2022-08-21T15:21:45;3.53;;;1.30;;
2686;SDS011;1353;51.386;7.028;2022-08-21T15:24:12;1.53;;;1.00;;
2686;SDS011;1353;51.386;7.028;2022-08-21T15:26:40;2.00;;;1.43;;
2686;SDS011;1353;51.386;7.028;2022-08-21T15:29:07;2.07;;;1.30;;